Fredericton Junction, Canada
Current Conditions -  °F | °C
As of 5:38 PM on Wednesday 26 Nov 2014 (Local Time) from CYFC Reporting Station
Heavy Snow Heavy Snow  
Wind Chill: 32°   Ceiling: 1600
Heat Index: 32°   Visibility: 0.25mi
Dew Point: 32°   Wind: 2mph
Humidity: 100%   Direction: 130°SE
Pressure: 30.21"   Gusts: NA
Location:  45.67°N, 66.62°W
Report Text: CYFC 262138Z AUTO 13002KT 1/4SM R09/P6000FT/D +SN FEW010 BKN016 OVC024 00/M00 A3021 RMK ICG SLP232
Loading
Personal Weather Stations






























Interactive Weather Map New forecast layout! Learn more

10-Day Weather Forecast

Advertisements
Track Severe Weather on mobile